sensor_id;sensor_type;location;lat;lon;timestamp;P1;durP1;ratioP1;P2;durP2;ratioP2
1082;SDS011;530;51.448;7.238;2023-04-16T00:02:00;17.57;;;10.80;;
1082;SDS011;530;51.448;7.238;2023-04-16T00:04:26;13.43;;;10.50;;
1082;SDS011;530;51.448;7.238;2023-04-16T00:06:53;11.40;;;10.20;;
1082;SDS011;530;51.448;7.238;2023-04-16T00:09:19;14.57;;;10.97;;
1082;SDS011;530;51.448;7.238;2023-04-16T00:11:45;11.40;;;10.00;;
1082;SDS011;530;51.448;7.238;2023-04-16T00:14:10;14.63;;;10.60;;
1082;SDS011;530;51.448;7.238;2023-04-16T00:16:36;14.23;;;10.33;;
1082;SDS011;530;51.448;7.238;2023-04-16T00:19:02;14.30;;;11.60;;
1082;SDS011;530;51.448;7.238;2023-04-16T00:21:28;16.93;;;10.70;;
1082;SDS011;530;51.448;7.238;2023-04-16T00:23:54;16.67;;;11.60;;
1082;SDS011;530;51.448;7.238;2023-04-16T00:26:19;13.40;;;9.97;;
1082;SDS011;530;51.448;7.238;2023-04-16T00:28:45;12.40;;;9.37;;
1082;SDS011;530;51.448;7.238;2023-04-16T00:31:10;14.57;;;11.07;;
1082;SDS011;530;51.448;7.238;2023-04-16T00:33:36;14.40;;;10.37;;
1082;SDS011;530;51.448;7.238;2023-04-16T00:36:02;11.67;;;10.03;;
1082;SDS011;530;51.448;7.238;2023-04-16T00:38:28;15.20;;;10.30;;
1082;SDS011;530;51.448;7.238;2023-04-16T00:40:54;13.23;;;10.13;;
1082;SDS011;530;51.448;7.238;2023-04-16T00:43:23;16.10;;;11.03;;
1082;SDS011;530;51.448;7.238;2023-04-16T00:45:51;14.33;;;11.07;;
1082;SDS011;530;51.448;7.238;2023-04-16T00:48:18;12.47;;;10.10;;
1082;SDS011;530;51.448;7.238;2023-04-16T00:50:45;14.23;;;11.97;;
1082;SDS011;530;51.448;7.238;2023-04-16T00:53:10;14.23;;;10.70;;
1082;SDS011;530;51.448;7.238;2023-04-16T00:55:37;14.37;;;11.07;;
1082;SDS011;530;51.448;7.238;2023-04-16T00:58:03;14.77;;;11.20;;
1082;SDS011;530;51.448;7.238;2023-04-16T01:00:29;15.93;;;11.53;;
1082;SDS011;530;51.448;7.238;2023-04-16T01:02:55;15.30;;;11.27;;
1082;SDS011;530;51.448;7.238;2023-04-16T01:05:21;13.90;;;11.10;;
1082;SDS011;530;51.448;7.238;2023-04-16T01:07:46;13.17;;;10.80;;
1082;SDS011;530;51.448;7.238;2023-04-16T01:10:12;14.90;;;11.60;;
1082;SDS011;530;51.448;7.238;2023-04-16T01:12:38;13.70;;;11.30;;
1082;SDS011;530;51.448;7.238;2023-04-16T01:15:03;16.37;;;12.63;;
1082;SDS011;530;51.448;7.238;2023-04-16T01:17:29;14.63;;;11.47;;
1082;SDS011;530;51.448;7.238;2023-04-16T01:19:58;19.57;;;12.00;;
1082;SDS011;530;51.448;7.238;2023-04-16T01:22:25;13.83;;;11.67;;
1082;SDS011;530;51.448;7.238;2023-04-16T01:24:51;18.40;;;12.17;;
1082;SDS011;530;51.448;7.238;2023-04-16T01:27:17;15.40;;;11.70;;
1082;SDS011;530;51.448;7.238;2023-04-16T01:29:43;16.00;;;12.50;;
1082;SDS011;530;51.448;7.238;2023-04-16T01:32:08;18.00;;;13.07;;
1082;SDS011;530;51.448;7.238;2023-04-16T01:34:34;18.10;;;12.47;;
1082;SDS011;530;51.448;7.238;2023-04-16T01:37:00;22.37;;;12.83;;
1082;SDS011;530;51.448;7.238;2023-04-16T01:39:25;17.40;;;13.07;;
1082;SDS011;530;51.448;7.238;2023-04-16T01:41:51;18.53;;;12.57;;
1082;SDS011;530;51.448;7.238;2023-04-16T01:44:17;17.00;;;12.40;;
1082;SDS011;530;51.448;7.238;2023-04-16T01:46:42;17.77;;;13.43;;
1082;SDS011;530;51.448;7.238;2023-04-16T01:49:09;14.73;;;12.07;;
1082;SDS011;530;51.448;7.238;2023-04-16T01:51:34;16.80;;;13.60;;
1082;SDS011;530;51.448;7.238;2023-04-16T01:54:00;17.60;;;12.50;;
1082;SDS011;530;51.448;7.238;2023-04-16T01:56:26;15.77;;;12.77;;
1082;SDS011;530;51.448;7.238;2023-04-16T01:58:52;18.03;;;13.10;;
1082;SDS011;530;51.448;7.238;2023-04-16T02:01:17;18.07;;;12.80;;
1082;SDS011;530;51.448;7.238;2023-04-16T02:03:43;16.97;;;12.90;;
1082;SDS011;530;51.448;7.238;2023-04-16T02:06:09;16.87;;;13.30;;
1082;SDS011;530;51.448;7.238;2023-04-16T02:08:35;19.80;;;14.63;;
1082;SDS011;530;51.448;7.238;2023-04-16T02:11:00;15.60;;;12.60;;
1082;SDS011;530;51.448;7.238;2023-04-16T02:13:26;15.93;;;12.90;;
1082;SDS011;530;51.448;7.238;2023-04-16T02:15:52;20.57;;;13.80;;
1082;SDS011;530;51.448;7.238;2023-04-16T02:18:17;17.67;;;14.00;;
1082;SDS011;530;51.448;7.238;2023-04-16T02:20:44;19.93;;;14.33;;
1082;SDS011;530;51.448;7.238;2023-04-16T02:23:11;18.97;;;14.07;;
1082;SDS011;530;51.448;7.238;2023-04-16T02:25:39;20.73;;;14.10;;
1082;SDS011;530;51.448;7.238;2023-04-16T02:28:13;18.50;;;14.40;;
1082;SDS011;530;51.448;7.238;2023-04-16T02:30:40;20.67;;;15.47;;
1082;SDS011;530;51.448;7.238;2023-04-16T02:33:06;22.63;;;15.50;;
1082;SDS011;530;51.448;7.238;2023-04-16T02:35:33;21.33;;;15.53;;
1082;SDS011;530;51.448;7.238;2023-04-16T02:38:00;22.73;;;16.20;;
1082;SDS011;530;51.448;7.238;2023-04-16T02:40:26;20.93;;;16.77;;
1082;SDS011;530;51.448;7.238;2023-04-16T02:42:52;20.70;;;16.73;;
1082;SDS011;530;51.448;7.238;2023-04-16T02:45:19;21.87;;;16.37;;
1082;SDS011;530;51.448;7.238;2023-04-16T02:47:45;24.93;;;18.00;;
1082;SDS011;530;51.448;7.238;2023-04-16T02:50:11;22.33;;;17.20;;
1082;SDS011;530;51.448;7.238;2023-04-16T02:52:37;28.40;;;17.20;;
1082;SDS011;530;51.448;7.238;2023-04-16T02:55:02;22.57;;;16.57;;
1082;SDS011;530;51.448;7.238;2023-04-16T02:57:28;25.53;;;18.83;;
1082;SDS011;530;51.448;7.238;2023-04-16T02:59:54;24.97;;;18.00;;
1082;SDS011;530;51.448;7.238;2023-04-16T03:02:20;23.33;;;18.27;;
1082;SDS011;530;51.448;7.238;2023-04-16T03:04:45;25.77;;;18.93;;
1082;SDS011;530;51.448;7.238;2023-04-16T03:07:11;33.50;;;19.17;;
1082;SDS011;530;51.448;7.238;2023-04-16T03:09:37;29.00;;;20.23;;
1082;SDS011;530;51.448;7.238;2023-04-16T03:12:03;22.47;;;18.30;;
1082;SDS011;530;51.448;7.238;2023-04-16T03:14:29;28.13;;;20.20;;
1082;SDS011;530;51.448;7.238;2023-04-16T03:16:55;27.50;;;19.30;;
1082;SDS011;530;51.448;7.238;2023-04-16T03:19:21;25.47;;;19.47;;
1082;SDS011;530;51.448;7.238;2023-04-16T03:21:47;27.40;;;19.67;;
1082;SDS011;530;51.448;7.238;2023-04-16T03:24:13;30.93;;;19.57;;
1082;SDS011;530;51.448;7.238;2023-04-16T03:26:38;27.87;;;20.30;;
1082;SDS011;530;51.448;7.238;2023-04-16T03:29:04;24.87;;;19.30;;
1082;SDS011;530;51.448;7.238;2023-04-16T03:31:30;26.40;;;19.83;;
1082;SDS011;530;51.448;7.238;2023-04-16T03:33:56;29.13;;;19.73;;
1082;SDS011;530;51.448;7.238;2023-04-16T03:36:21;28.67;;;20.47;;
1082;SDS011;530;51.448;7.238;2023-04-16T03:38:47;26.67;;;18.40;;
1082;SDS011;530;51.448;7.238;2023-04-16T03:41:13;28.43;;;19.50;;
1082;SDS011;530;51.448;7.238;2023-04-16T03:43:39;26.43;;;18.23;;
1082;SDS011;530;51.448;7.238;2023-04-16T03:46:05;22.83;;;18.57;;
1082;SDS011;530;51.448;7.238;2023-04-16T03:48:30;23.67;;;18.50;;
1082;SDS011;530;51.448;7.238;2023-04-16T03:50:56;21.60;;;18.67;;
1082;SDS011;530;51.448;7.238;2023-04-16T03:53:22;25.57;;;18.77;;
1082;SDS011;530;51.448;7.238;2023-04-16T03:55:48;25.83;;;18.83;;
1082;SDS011;530;51.448;7.238;2023-04-16T03:58:15;24.23;;;19.30;;
1082;SDS011;530;51.448;7.238;2023-04-16T04:00:41;24.73;;;18.80;;
1082;SDS011;530;51.448;7.238;2023-04-16T04:03:08;22.67;;;17.90;;
1082;SDS011;530;51.448;7.238;2023-04-16T04:05:35;27.10;;;19.07;;
1082;SDS011;530;51.448;7.238;2023-04-16T04:08:02;27.90;;;20.27;;
1082;SDS011;530;51.448;7.238;2023-04-16T04:10:30;27.77;;;19.60;;
1082;SDS011;530;51.448;7.238;2023-04-16T04:12:56;28.77;;;21.13;;
1082;SDS011;530;51.448;7.238;2023-04-16T04:15:22;25.40;;;19.03;;
1082;SDS011;530;51.448;7.238;2023-04-16T04:17:48;33.77;;;21.80;;
1082;SDS011;530;51.448;7.238;2023-04-16T04:20:13;28.20;;;19.70;;
1082;SDS011;530;51.448;7.238;2023-04-16T04:22:39;29.20;;;20.53;;
1082;SDS011;530;51.448;7.238;2023-04-16T04:25:05;28.23;;;20.60;;
1082;SDS011;530;51.448;7.238;2023-04-16T04:27:30;35.03;;;22.23;;
1082;SDS011;530;51.448;7.238;2023-04-16T04:29:56;30.07;;;20.80;;
1082;SDS011;530;51.448;7.238;2023-04-16T04:32:22;27.70;;;20.47;;
1082;SDS011;530;51.448;7.238;2023-04-16T04:34:47;31.57;;;21.50;;
1082;SDS011;530;51.448;7.238;2023-04-16T04:37:13;33.50;;;21.47;;
1082;SDS011;530;51.448;7.238;2023-04-16T04:39:39;30.50;;;20.97;;
1082;SDS011;530;51.448;7.238;2023-04-16T04:42:05;31.53;;;20.50;;
1082;SDS011;530;51.448;7.238;2023-04-16T04:44:30;29.17;;;20.50;;
1082;SDS011;530;51.448;7.238;2023-04-16T04:46:56;32.30;;;21.33;;
1082;SDS011;530;51.448;7.238;2023-04-16T04:49:21;37.20;;;22.60;;
1082;SDS011;530;51.448;7.238;2023-04-16T04:51:47;30.67;;;20.73;;
1082;SDS011;530;51.448;7.238;2023-04-16T04:54:13;33.70;;;21.77;;
1082;SDS011;530;51.448;7.238;2023-04-16T04:56:39;31.00;;;22.43;;
1082;SDS011;530;51.448;7.238;2023-04-16T04:59:04;32.57;;;20.97;;
1082;SDS011;530;51.448;7.238;2023-04-16T05:01:30;31.00;;;21.33;;
1082;SDS011;530;51.448;7.238;2023-04-16T05:03:56;42.00;;;23.40;;
1082;SDS011;530;51.448;7.238;2023-04-16T05:06:21;32.20;;;20.70;;
1082;SDS011;530;51.448;7.238;2023-04-16T05:08:47;32.60;;;20.30;;
1082;SDS011;530;51.448;7.238;2023-04-16T05:11:12;28.60;;;19.60;;
1082;SDS011;530;51.448;7.238;2023-04-16T05:13:38;28.83;;;20.23;;
1082;SDS011;530;51.448;7.238;2023-04-16T05:16:04;31.30;;;21.67;;
1082;SDS011;530;51.448;7.238;2023-04-16T05:18:30;32.50;;;20.67;;
1082;SDS011;530;51.448;7.238;2023-04-16T05:20:56;30.67;;;21.80;;
1082;SDS011;530;51.448;7.238;2023-04-16T05:23:22;29.30;;;19.47;;
1082;SDS011;530;51.448;7.238;2023-04-16T05:25:48;30.47;;;21.13;;
1082;SDS011;530;51.448;7.238;2023-04-16T05:28:13;30.90;;;20.87;;
1082;SDS011;530;51.448;7.238;2023-04-16T05:30:39;31.30;;;21.67;;
1082;SDS011;530;51.448;7.238;2023-04-16T05:33:04;32.03;;;20.93;;
1082;SDS011;530;51.448;7.238;2023-04-16T05:35:30;32.83;;;21.80;;
1082;SDS011;530;51.448;7.238;2023-04-16T05:37:56;33.93;;;21.47;;
1082;SDS011;530;51.448;7.238;2023-04-16T05:40:21;33.83;;;21.97;;
1082;SDS011;530;51.448;7.238;2023-04-16T05:42:47;29.97;;;21.17;;
1082;SDS011;530;51.448;7.238;2023-04-16T05:45:13;35.70;;;22.13;;
1082;SDS011;530;51.448;7.238;2023-04-16T05:47:40;35.27;;;20.93;;
1082;SDS011;530;51.448;7.238;2023-04-16T05:50:05;33.07;;;22.00;;
1082;SDS011;530;51.448;7.238;2023-04-16T05:52:31;30.37;;;21.40;;
1082;SDS011;530;51.448;7.238;2023-04-16T05:54:57;33.00;;;21.00;;
1082;SDS011;530;51.448;7.238;2023-04-16T05:57:25;33.50;;;22.10;;
1082;SDS011;530;51.448;7.238;2023-04-16T05:59:52;32.80;;;21.00;;
1082;SDS011;530;51.448;7.238;2023-04-16T06:02:18;31.60;;;21.07;;
1082;SDS011;530;51.448;7.238;2023-04-16T06:04:44;36.83;;;21.90;;
1082;SDS011;530;51.448;7.238;2023-04-16T06:07:10;31.80;;;21.87;;
1082;SDS011;530;51.448;7.238;2023-04-16T06:09:36;40.70;;;21.57;;
1082;SDS011;530;51.448;7.238;2023-04-16T06:12:01;31.53;;;21.60;;
1082;SDS011;530;51.448;7.238;2023-04-16T06:14:27;32.90;;;21.87;;
1082;SDS011;530;51.448;7.238;2023-04-16T06:16:53;32.27;;;23.23;;
1082;SDS011;530;51.448;7.238;2023-04-16T06:19:18;33.50;;;22.77;;
1082;SDS011;530;51.448;7.238;2023-04-16T06:21:44;33.03;;;23.90;;
1082;SDS011;530;51.448;7.238;2023-04-16T06:24:10;33.33;;;21.50;;
1082;SDS011;530;51.448;7.238;2023-04-16T06:26:37;33.53;;;23.70;;
1082;SDS011;530;51.448;7.238;2023-04-16T06:29:03;31.87;;;22.00;;
1082;SDS011;530;51.448;7.238;2023-04-16T06:31:28;33.67;;;22.70;;
1082;SDS011;530;51.448;7.238;2023-04-16T06:33:55;32.30;;;22.43;;
1082;SDS011;530;51.448;7.238;2023-04-16T06:36:21;31.83;;;22.50;;
1082;SDS011;530;51.448;7.238;2023-04-16T06:38:46;30.97;;;22.57;;
1082;SDS011;530;51.448;7.238;2023-04-16T06:41:15;33.00;;;22.20;;
1082;SDS011;530;51.448;7.238;2023-04-16T06:43:40;33.63;;;23.77;;
1082;SDS011;530;51.448;7.238;2023-04-16T06:46:06;36.90;;;24.43;;
1082;SDS011;530;51.448;7.238;2023-04-16T06:48:32;31.33;;;22.80;;
1082;SDS011;530;51.448;7.238;2023-04-16T06:50:57;30.40;;;21.73;;
1082;SDS011;530;51.448;7.238;2023-04-16T06:53:23;36.20;;;24.80;;
1082;SDS011;530;51.448;7.238;2023-04-16T06:55:48;35.73;;;23.50;;
1082;SDS011;530;51.448;7.238;2023-04-16T06:58:14;39.33;;;24.43;;
1082;SDS011;530;51.448;7.238;2023-04-16T07:00:40;32.20;;;23.23;;
1082;SDS011;530;51.448;7.238;2023-04-16T07:03:05;33.53;;;22.80;;
1082;SDS011;530;51.448;7.238;2023-04-16T07:05:31;39.83;;;25.60;;
1082;SDS011;530;51.448;7.238;2023-04-16T07:07:57;32.90;;;24.37;;
1082;SDS011;530;51.448;7.238;2023-04-16T07:10:23;35.03;;;22.47;;
1082;SDS011;530;51.448;7.238;2023-04-16T07:12:49;34.10;;;24.03;;
1082;SDS011;530;51.448;7.238;2023-04-16T07:15:15;32.30;;;23.93;;
1082;SDS011;530;51.448;7.238;2023-04-16T07:17:41;36.30;;;23.77;;
1082;SDS011;530;51.448;7.238;2023-04-16T07:20:06;31.67;;;22.73;;
1082;SDS011;530;51.448;7.238;2023-04-16T07:22:32;35.33;;;23.93;;
1082;SDS011;530;51.448;7.238;2023-04-16T07:24:58;38.13;;;25.07;;
1082;SDS011;530;51.448;7.238;2023-04-16T07:27:24;35.23;;;23.60;;
1082;SDS011;530;51.448;7.238;2023-04-16T07:29:49;30.43;;;21.10;;
1082;SDS011;530;51.448;7.238;2023-04-16T07:32:15;34.33;;;24.00;;
1082;SDS011;530;51.448;7.238;2023-04-16T07:34:41;35.07;;;25.00;;
1082;SDS011;530;51.448;7.238;2023-04-16T07:37:07;31.30;;;23.07;;
1082;SDS011;530;51.448;7.238;2023-04-16T07:39:33;32.17;;;22.47;;
1082;SDS011;530;51.448;7.238;2023-04-16T07:41:58;36.47;;;24.13;;
1082;SDS011;530;51.448;7.238;2023-04-16T07:44:24;31.47;;;23.53;;
1082;SDS011;530;51.448;7.238;2023-04-16T07:46:50;32.63;;;23.33;;
1082;SDS011;530;51.448;7.238;2023-04-16T07:49:16;34.27;;;24.30;;
1082;SDS011;530;51.448;7.238;2023-04-16T07:51:42;33.20;;;25.40;;
1082;SDS011;530;51.448;7.238;2023-04-16T07:54:07;32.13;;;24.23;;
1082;SDS011;530;51.448;7.238;2023-04-16T07:56:34;30.60;;;24.47;;
1082;SDS011;530;51.448;7.238;2023-04-16T07:59:00;31.60;;;24.50;;
1082;SDS011;530;51.448;7.238;2023-04-16T08:01:25;37.80;;;24.20;;
1082;SDS011;530;51.448;7.238;2023-04-16T08:03:51;31.23;;;24.50;;
1082;SDS011;530;51.448;7.238;2023-04-16T08:06:17;35.90;;;25.47;;
1082;SDS011;530;51.448;7.238;2023-04-16T08:08:42;32.57;;;23.80;;
1082;SDS011;530;51.448;7.238;2023-04-16T08:11:08;33.50;;;23.93;;
1082;SDS011;530;51.448;7.238;2023-04-16T08:13:34;34.07;;;23.63;;
1082;SDS011;530;51.448;7.238;2023-04-16T08:16:00;32.00;;;23.03;;
1082;SDS011;530;51.448;7.238;2023-04-16T08:18:26;33.07;;;24.20;;
1082;SDS011;530;51.448;7.238;2023-04-16T08:20:51;32.30;;;24.80;;
1082;SDS011;530;51.448;7.238;2023-04-16T08:23:17;31.90;;;24.37;;
1082;SDS011;530;51.448;7.238;2023-04-16T08:25:42;34.57;;;24.07;;
1082;SDS011;530;51.448;7.238;2023-04-16T08:28:08;30.53;;;23.60;;
1082;SDS011;530;51.448;7.238;2023-04-16T08:30:34;30.73;;;22.30;;
1082;SDS011;530;51.448;7.238;2023-04-16T08:33:00;28.50;;;22.87;;
1082;SDS011;530;51.448;7.238;2023-04-16T08:35:26;32.20;;;24.23;;
1082;SDS011;530;51.448;7.238;2023-04-16T08:37:51;28.37;;;22.90;;
1082;SDS011;530;51.448;7.238;2023-04-16T08:40:18;29.43;;;21.70;;
1082;SDS011;530;51.448;7.238;2023-04-16T08:42:47;29.87;;;23.50;;
1082;SDS011;530;51.448;7.238;2023-04-16T08:45:19;30.73;;;23.40;;
1082;SDS011;530;51.448;7.238;2023-04-16T08:47:46;29.83;;;22.27;;
1082;SDS011;530;51.448;7.238;2023-04-16T08:50:14;29.77;;;22.57;;
1082;SDS011;530;51.448;7.238;2023-04-16T08:52:44;27.23;;;21.67;;
1082;SDS011;530;51.448;7.238;2023-04-16T08:55:15;27.17;;;21.20;;
1082;SDS011;530;51.448;7.238;2023-04-16T08:57:46;29.50;;;23.10;;
1082;SDS011;530;51.448;7.238;2023-04-16T09:00:15;28.30;;;22.63;;
1082;SDS011;530;51.448;7.238;2023-04-16T09:02:41;27.17;;;21.03;;
1082;SDS011;530;51.448;7.238;2023-04-16T09:05:07;30.90;;;21.60;;
1082;SDS011;530;51.448;7.238;2023-04-16T09:07:34;26.43;;;21.77;;
1082;SDS011;530;51.448;7.238;2023-04-16T09:10:00;28.10;;;22.20;;
1082;SDS011;530;51.448;7.238;2023-04-16T09:12:28;27.40;;;21.57;;
1082;SDS011;530;51.448;7.238;2023-04-16T09:14:55;30.10;;;21.50;;
1082;SDS011;530;51.448;7.238;2023-04-16T09:17:21;29.03;;;23.80;;
1082;SDS011;530;51.448;7.238;2023-04-16T09:19:47;28.43;;;21.87;;
1082;SDS011;530;51.448;7.238;2023-04-16T09:22:12;26.93;;;21.80;;
1082;SDS011;530;51.448;7.238;2023-04-16T09:24:38;24.33;;;20.60;;
1082;SDS011;530;51.448;7.238;2023-04-16T09:27:04;24.50;;;20.63;;
1082;SDS011;530;51.448;7.238;2023-04-16T09:29:32;26.17;;;22.07;;
1082;SDS011;530;51.448;7.238;2023-04-16T09:32:02;26.27;;;21.37;;
1082;SDS011;530;51.448;7.238;2023-04-16T09:34:31;25.20;;;21.30;;
1082;SDS011;530;51.448;7.238;2023-04-16T09:37:13;28.50;;;20.20;;
1082;SDS011;530;51.448;7.238;2023-04-16T09:39:43;25.80;;;21.53;;
1082;SDS011;530;51.448;7.238;2023-04-16T09:42:09;27.43;;;21.13;;
1082;SDS011;530;51.448;7.238;2023-04-16T09:44:36;24.10;;;20.20;;
1082;SDS011;530;51.448;7.238;2023-04-16T09:47:08;25.40;;;21.40;;
1082;SDS011;530;51.448;7.238;2023-04-16T09:49:36;29.77;;;22.40;;
1082;SDS011;530;51.448;7.238;2023-04-16T09:52:12;25.60;;;21.03;;
1082;SDS011;530;51.448;7.238;2023-04-16T09:54:49;27.23;;;22.23;;
1082;SDS011;530;51.448;7.238;2023-04-16T09:59:46;28.67;;;21.20;;
1082;SDS011;530;51.448;7.238;2023-04-16T10:02:12;25.10;;;21.77;;
1082;SDS011;530;51.448;7.238;2023-04-16T10:04:45;28.77;;;20.60;;
1082;SDS011;530;51.448;7.238;2023-04-16T10:07:14;26.67;;;21.30;;
1082;SDS011;530;51.448;7.238;2023-04-16T10:09:41;27.50;;;22.07;;
1082;SDS011;530;51.448;7.238;2023-04-16T10:12:06;23.33;;;20.60;;
1082;SDS011;530;51.448;7.238;2023-04-16T10:14:32;27.57;;;21.93;;
1082;SDS011;530;51.448;7.238;2023-04-16T10:16:59;25.50;;;20.80;;
1082;SDS011;530;51.448;7.238;2023-04-16T10:19:25;24.40;;;21.47;;
1082;SDS011;530;51.448;7.238;2023-04-16T10:21:52;25.67;;;20.33;;
1082;SDS011;530;51.448;7.238;2023-04-16T10:24:18;30.63;;;23.23;;
1082;SDS011;530;51.448;7.238;2023-04-16T10:26:44;26.47;;;22.10;;
1082;SDS011;530;51.448;7.238;2023-04-16T10:29:11;27.70;;;21.20;;
1082;SDS011;530;51.448;7.238;2023-04-16T10:31:37;34.13;;;22.80;;
1082;SDS011;530;51.448;7.238;2023-04-16T10:34:04;27.00;;;20.90;;
1082;SDS011;530;51.448;7.238;2023-04-16T10:36:35;27.10;;;21.20;;
1082;SDS011;530;51.448;7.238;2023-04-16T10:39:01;25.17;;;21.37;;
1082;SDS011;530;51.448;7.238;2023-04-16T10:41:27;26.40;;;21.40;;
1082;SDS011;530;51.448;7.238;2023-04-16T10:44:02;24.03;;;21.20;;
1082;SDS011;530;51.448;7.238;2023-04-16T10:46:37;26.10;;;21.93;;
1082;SDS011;530;51.448;7.238;2023-04-16T10:51:51;26.13;;;21.63;;
1082;SDS011;530;51.448;7.238;2023-04-16T10:54:30;26.13;;;21.43;;
1082;SDS011;530;51.448;7.238;2023-04-16T10:57:02;24.00;;;20.13;;
1082;SDS011;530;51.448;7.238;2023-04-16T10:59:29;25.40;;;21.70;;
1082;SDS011;530;51.448;7.238;2023-04-16T11:01:58;23.60;;;19.53;;
1082;SDS011;530;51.448;7.238;2023-04-16T11:04:28;23.93;;;20.83;;
1082;SDS011;530;51.448;7.238;2023-04-16T11:12:40;24.07;;;21.13;;
1082;SDS011;530;51.448;7.238;2023-04-16T11:17:39;23.50;;;19.83;;
1082;SDS011;530;51.448;7.238;2023-04-16T11:20:06;21.40;;;19.10;;
1082;SDS011;530;51.448;7.238;2023-04-16T11:22:34;22.60;;;18.80;;
1082;SDS011;530;51.448;7.238;2023-04-16T11:25:03;20.13;;;17.93;;
1082;SDS011;530;51.448;7.238;2023-04-16T11:27:32;22.53;;;19.53;;
1082;SDS011;530;51.448;7.238;2023-04-16T11:32:23;22.90;;;17.80;;
1082;SDS011;530;51.448;7.238;2023-04-16T11:34:49;20.10;;;16.70;;
1082;SDS011;530;51.448;7.238;2023-04-16T11:37:18;21.03;;;18.60;;
1082;SDS011;530;51.448;7.238;2023-04-16T11:40:05;21.93;;;19.20;;
1082;SDS011;530;51.448;7.238;2023-04-16T11:42:31;22.60;;;20.27;;
1082;SDS011;530;51.448;7.238;2023-04-16T11:45:00;20.57;;;18.40;;
1082;SDS011;530;51.448;7.238;2023-04-16T11:47:28;20.20;;;17.83;;
1082;SDS011;530;51.448;7.238;2023-04-16T11:49:55;21.03;;;18.83;;
1082;SDS011;530;51.448;7.238;2023-04-16T11:52:39;19.87;;;17.70;;
1082;SDS011;530;51.448;7.238;2023-04-16T11:55:05;19.90;;;17.40;;
1082;SDS011;530;51.448;7.238;2023-04-16T11:57:31;22.83;;;18.53;;
1082;SDS011;530;51.448;7.238;2023-04-16T11:59:57;20.43;;;18.10;;
1082;SDS011;530;51.448;7.238;2023-04-16T12:02:33;22.00;;;18.07;;
1082;SDS011;530;51.448;7.238;2023-04-16T12:05:03;20.30;;;17.20;;
1082;SDS011;530;51.448;7.238;2023-04-16T12:07:30;20.70;;;18.30;;
1082;SDS011;530;51.448;7.238;2023-04-16T12:10:05;19.47;;;17.47;;
1082;SDS011;530;51.448;7.238;2023-04-16T12:12:32;19.40;;;17.30;;
1082;SDS011;530;51.448;7.238;2023-04-16T12:14:59;21.43;;;17.27;;
1082;SDS011;530;51.448;7.238;2023-04-16T12:17:30;22.63;;;18.80;;
1082;SDS011;530;51.448;7.238;2023-04-16T12:19:58;23.50;;;18.90;;
1082;SDS011;530;51.448;7.238;2023-04-16T12:24:59;20.10;;;17.90;;
1082;SDS011;530;51.448;7.238;2023-04-16T12:30:15;20.90;;;18.00;;
1082;SDS011;530;51.448;7.238;2023-04-16T12:32:43;21.57;;;19.13;;
1082;SDS011;530;51.448;7.238;2023-04-16T12:35:11;20.67;;;18.40;;
1082;SDS011;530;51.448;7.238;2023-04-16T12:37:37;21.90;;;19.57;;
1082;SDS011;530;51.448;7.238;2023-04-16T12:40:03;21.00;;;18.70;;
1082;SDS011;530;51.448;7.238;2023-04-16T12:42:30;23.10;;;19.70;;
1082;SDS011;530;51.448;7.238;2023-04-16T12:45:03;24.53;;;19.23;;
1082;SDS011;530;51.448;7.238;2023-04-16T12:47:30;23.20;;;18.80;;
1082;SDS011;530;51.448;7.238;2023-04-16T12:49:56;20.73;;;17.97;;
1082;SDS011;530;51.448;7.238;2023-04-16T12:52:22;23.63;;;19.90;;
1082;SDS011;530;51.448;7.238;2023-04-16T12:54:48;23.07;;;19.30;;
1082;SDS011;530;51.448;7.238;2023-04-16T12:57:14;23.00;;;18.97;;
1082;SDS011;530;51.448;7.238;2023-04-16T12:59:40;26.00;;;20.30;;
1082;SDS011;530;51.448;7.238;2023-04-16T13:02:06;24.40;;;19.80;;
1082;SDS011;530;51.448;7.238;2023-04-16T13:04:32;20.73;;;18.53;;
1082;SDS011;530;51.448;7.238;2023-04-16T13:06:58;22.90;;;19.33;;
1082;SDS011;530;51.448;7.238;2023-04-16T13:09:24;21.93;;;19.63;;
1082;SDS011;530;51.448;7.238;2023-04-16T13:11:51;21.50;;;19.13;;
1082;SDS011;530;51.448;7.238;2023-04-16T13:14:16;22.73;;;19.43;;
1082;SDS011;530;51.448;7.238;2023-04-16T13:16:43;23.80;;;19.80;;
1082;SDS011;530;51.448;7.238;2023-04-16T13:19:08;21.07;;;18.40;;
1082;SDS011;530;51.448;7.238;2023-04-16T13:21:34;21.50;;;18.23;;
1082;SDS011;530;51.448;7.238;2023-04-16T13:24:00;19.53;;;17.30;;
1082;SDS011;530;51.448;7.238;2023-04-16T13:26:25;20.40;;;17.80;;
1082;SDS011;530;51.448;7.238;2023-04-16T13:28:51;21.97;;;18.80;;
1082;SDS011;530;51.448;7.238;2023-04-16T13:31:17;22.37;;;20.07;;
1082;SDS011;530;51.448;7.238;2023-04-16T13:33:44;19.60;;;17.60;;
1082;SDS011;530;51.448;7.238;2023-04-16T13:36:11;19.87;;;17.77;;
1082;SDS011;530;51.448;7.238;2023-04-16T13:38:36;19.40;;;17.40;;
1082;SDS011;530;51.448;7.238;2023-04-16T13:41:03;19.50;;;17.40;;
1082;SDS011;530;51.448;7.238;2023-04-16T13:43:30;18.93;;;16.73;;
1082;SDS011;530;51.448;7.238;2023-04-16T13:45:56;18.93;;;17.03;;
1082;SDS011;530;51.448;7.238;2023-04-16T13:48:21;19.77;;;16.63;;
1082;SDS011;530;51.448;7.238;2023-04-16T13:50:47;18.93;;;16.97;;
1082;SDS011;530;51.448;7.238;2023-04-16T13:53:13;19.47;;;16.77;;
1082;SDS011;530;51.448;7.238;2023-04-16T13:55:38;19.33;;;16.20;;
1082;SDS011;530;51.448;7.238;2023-04-16T13:58:04;19.90;;;17.67;;
1082;SDS011;530;51.448;7.238;2023-04-16T14:00:31;19.10;;;17.07;;
1082;SDS011;530;51.448;7.238;2023-04-16T14:02:57;17.30;;;15.57;;
1082;SDS011;530;51.448;7.238;2023-04-16T14:05:22;18.57;;;16.70;;
1082;SDS011;530;51.448;7.238;2023-04-16T14:07:48;16.27;;;14.60;;
1082;SDS011;530;51.448;7.238;2023-04-16T14:10:15;17.63;;;15.60;;
1082;SDS011;530;51.448;7.238;2023-04-16T14:12:41;17.70;;;15.80;;
1082;SDS011;530;51.448;7.238;2023-04-16T14:15:07;18.03;;;16.10;;
1082;SDS011;530;51.448;7.238;2023-04-16T14:17:34;17.30;;;15.23;;
1082;SDS011;530;51.448;7.238;2023-04-16T14:20:01;17.63;;;15.73;;
1082;SDS011;530;51.448;7.238;2023-04-16T14:22:29;17.17;;;15.40;;
1082;SDS011;530;51.448;7.238;2023-04-16T14:24:54;18.13;;;15.33;;
1082;SDS011;530;51.448;7.238;2023-04-16T14:27:20;17.40;;;14.93;;
1082;SDS011;530;51.448;7.238;2023-04-16T14:29:46;16.53;;;14.83;;
1082;SDS011;530;51.448;7.238;2023-04-16T14:32:11;19.20;;;15.97;;
1082;SDS011;530;51.448;7.238;2023-04-16T14:34:37;16.83;;;15.13;;
1082;SDS011;530;51.448;7.238;2023-04-16T14:37:03;19.13;;;16.13;;
1082;SDS011;530;51.448;7.238;2023-04-16T14:39:29;17.87;;;15.80;;
1082;SDS011;530;51.448;7.238;2023-04-16T14:41:55;18.60;;;15.33;;
1082;SDS011;530;51.448;7.238;2023-04-16T14:44:20;19.47;;;16.20;;
1082;SDS011;530;51.448;7.238;2023-04-16T14:46:47;19.00;;;16.30;;
1082;SDS011;530;51.448;7.238;2023-04-16T14:49:12;17.83;;;15.97;;
1082;SDS011;530;51.448;7.238;2023-04-16T14:51:39;17.57;;;15.50;;
1082;SDS011;530;51.448;7.238;2023-04-16T14:54:05;19.60;;;17.10;;
1082;SDS011;530;51.448;7.238;2023-04-16T14:56:31;17.40;;;15.70;;
1082;SDS011;530;51.448;7.238;2023-04-16T14:58:56;17.53;;;15.27;;
1082;SDS011;530;51.448;7.238;2023-04-16T15:01:22;20.30;;;16.47;;
1082;SDS011;530;51.448;7.238;2023-04-16T15:03:48;16.17;;;14.47;;
1082;SDS011;530;51.448;7.238;2023-04-16T15:06:14;15.70;;;14.10;;
1082;SDS011;530;51.448;7.238;2023-04-16T15:08:40;17.07;;;13.87;;
1082;SDS011;530;51.448;7.238;2023-04-16T15:11:06;16.10;;;14.50;;
1082;SDS011;530;51.448;7.238;2023-04-16T15:13:32;17.00;;;13.90;;
1082;SDS011;530;51.448;7.238;2023-04-16T15:16:01;15.53;;;13.93;;
1082;SDS011;530;51.448;7.238;2023-04-16T15:18:28;17.50;;;15.30;;